GCXO Airport Information

Runway Information
Runway 12 Length 11155 ft width 148 ft
Elevation 2060 ft Threshold 0 ft Heading 111
Runway 30 Length 11155 ft Width 148 ft
Elevation 2002 ft Threshold 0 ft Heading 291
Airport Frequencies
Type APP Name APP Frequency 119.7 MHZ
Type ATIS Name ATIS Frequency 118.575 MHZ
Type GND Name GND Frequency 121.7 MHZ
Type TWR Name TWR Frequency 118.7 MHZ
Airport Navaids
Type VOR-DME Name Tenerife Norte Frequency 117700 KHZ
Type NDB Name Tenerife Norte Frequency 410 KHZ
Airport Weather Information & NOTAM
ADDS - METARS form results

(1124 UTC 22 January 2022)
Data provider http://aviationweather.gov/metar/data/
 
METAR text: GCXO 221100Z 12005KT 090V150 9999 FEW012 SCT016 16/12 Q1018 NOSIG
Conditions at: GCXO (TENERIFE/LOS ROD, ES) observed 1100 UTC 22 January 2022
Temperature: 16.0°C (61°F)
Dewpoint: 12.0°C (54°F) [RH = 77%]
Pressure (altimeter): 30.06 inches Hg (1018.0 mb)
Winds: from the ESE (120 degrees) at 6 MPH (5 knots; 2.6 m/s)
Visibility: 6 or more miles (10+ km)
Ceiling: at least 12,000 feet AGL
Clouds: few clouds at 1200 feet AGL
scattered clouds at 1600 feet AGL
Weather: no significant weather observed at this time

METAR text: GCXO 221030Z VRB01KT 9999 FEW010 SCT014 16/12 Q1018 NOSIG
Conditions at: GCXO (TENERIFE/LOS ROD, ES) observed 1030 UTC 22 January 2022
Temperature: 16.0°C (61°F)
Dewpoint: 12.0°C (54°F) [RH = 77%]
Pressure (altimeter): 30.06 inches Hg (1018.0 mb)
Winds: variable direction winds at 1 MPH (1 knots; 0.5 m/s)
Visibility: 6 or more miles (10+ km)
Ceiling: at least 12,000 feet AGL
Clouds: few clouds at 1000 feet AGL
scattered clouds at 1400 feet AGL
Weather: no significant weather observed at this time

Forecast for: GCXO (TENERIFE/LOS ROD, ES)
Text: TAF GCXO 220800Z 2209/2309 13005KT 9999 SCT015 TX17/2214Z TN11/2307Z
Forecast period: 0900 UTC 22 January 2022 to 0900 UTC 23 January 2022
Forecast type: FROM: standard forecast or significant change
Winds: from the SE (130 degrees) at 6 MPH (5 knots; 2.6 m/s)
Visibility: 6 or more miles (10+ km)
Ceiling: at least 12,000 feet AGL
Clouds: scattered clouds at 1500 feet AGL
Weather: no significant weather forecast for this period
Text: PROB30
Forecast period: 1200 to 1800 UTC 22 January 2022
Forecast type: TEMPORARY: The following changes expected for less than half the time period
Visibility: missing
Ceiling: unknown
Clouds: missing
Weather: RA  (moderate rain)
Text: TEMPO 2212/2218 RA
Forecast period: 1800 to 2200 UTC 22 January 2022
Forecast type: TEMPORARY: The following changes expected for less than half the time period
Visibility: 2.49 miles (4.01 km)
Ceiling: 500 feet AGL
Clouds: broken clouds at 500 feet AGL
Weather: BCFG  (patches of fog)